createdAt,value
2022-09-12T00:01:53.956Z,19.74
2022-09-12T00:04:20.921Z,19.71
2022-09-12T00:06:48.048Z,19.69
2022-09-12T00:09:15.344Z,19.65
2022-09-12T00:11:45.564Z,19.60
2022-09-12T00:14:17.250Z,19.57
2022-09-12T00:16:44.585Z,19.52
2022-09-12T00:19:12.395Z,19.47
2022-09-12T00:21:40.684Z,19.48
2022-09-12T00:24:08.696Z,19.45
2022-09-12T00:26:36.119Z,19.40
2022-09-12T00:29:03.482Z,19.35
2022-09-12T00:31:30.610Z,19.32
2022-09-12T00:34:00.838Z,19.27
2022-09-12T00:36:29.684Z,19.26
2022-09-12T00:38:56.596Z,19.21
2022-09-12T00:41:31.070Z,19.20
2022-09-12T00:44:02.999Z,19.17
2022-09-12T00:46:42.454Z,19.11
2022-09-12T00:49:19.145Z,19.06
2022-09-12T00:52:20.706Z,18.98
2022-09-12T00:55:28.715Z,18.93
2022-09-12T00:58:08.788Z,18.88
2022-09-12T01:00:35.813Z,18.86
2022-09-12T01:03:07.921Z,18.84
2022-09-12T01:05:39.650Z,18.83
2022-09-12T01:08:07.360Z,18.85
2022-09-12T01:10:37.948Z,18.82
2022-09-12T01:13:09.919Z,18.83
2022-09-12T01:15:40.725Z,18.83
2022-09-12T01:18:16.223Z,18.83
2022-09-12T01:21:30.295Z,18.80
2022-09-12T01:24:36.534Z,18.80
2022-09-12T01:27:28.028Z,18.79
2022-09-12T01:30:32.756Z,18.77
2022-09-12T01:33:23.484Z,18.77
2022-09-12T01:36:11.882Z,18.76
2022-09-12T01:38:49.932Z,18.77
2022-09-12T01:41:50.300Z,18.71
2022-09-12T01:44:54.961Z,18.75
2022-09-12T01:47:32.249Z,18.75
2022-09-12T01:50:17.604Z,18.73
2022-09-12T01:52:59.867Z,18.71
2022-09-12T01:55:47.020Z,18.68
2022-09-12T01:58:26.288Z,18.64
2022-09-12T02:01:06.639Z,18.60
2022-09-12T02:04:02.007Z,18.54
2022-09-12T02:06:37.611Z,18.50
2022-09-12T02:09:12.578Z,18.45
2022-09-12T02:11:44.497Z,18.43
2022-09-12T02:14:17.894Z,18.39
2022-09-12T02:16:51.085Z,18.37
2022-09-12T02:19:23.432Z,18.33
2022-09-12T02:21:57.554Z,18.29
2022-09-12T02:24:32.306Z,18.25
2022-09-12T02:27:23.984Z,18.21
2022-09-12T02:29:51.267Z,18.19
2022-09-12T02:32:37.565Z,18.14
2022-09-12T02:35:10.695Z,18.12
2022-09-12T02:38:04.584Z,18.06
2022-09-12T02:40:32.918Z,18.03
2022-09-12T02:43:01.593Z,18.03
2022-09-12T02:45:29.499Z,18.00
2022-09-12T02:48:13.736Z,17.99
2022-09-12T02:50:42.035Z,17.96
2022-09-12T02:53:10.616Z,17.92
2022-09-12T02:55:40.331Z,17.89
2022-09-12T02:58:13.501Z,17.88
2022-09-12T03:01:07.831Z,17.86
2022-09-12T03:04:22.644Z,17.81
2022-09-12T03:07:31.750Z,17.71
2022-09-12T03:10:14.963Z,17.74
2022-09-12T03:13:04.137Z,17.70
2022-09-12T03:15:59.067Z,17.67
2022-09-12T03:18:44.085Z,17.63
2022-09-12T03:21:58.707Z,17.57
2022-09-12T03:24:38.104Z,17.54
2022-09-12T03:27:18.044Z,17.51
2022-09-12T03:29:47.897Z,17.46
2022-09-12T03:32:15.434Z,17.47
2022-09-12T03:34:42.309Z,17.46
2022-09-12T03:37:10.255Z,17.44
2022-09-12T03:39:37.217Z,17.41
2022-09-12T03:42:04.194Z,17.39
2022-09-12T03:44:31.074Z,17.37
2022-09-12T03:46:57.953Z,17.35
2022-09-12T03:49:24.849Z,17.34
2022-09-12T03:51:51.707Z,17.33
2022-09-12T03:54:18.588Z,17.30
2022-09-12T03:56:45.452Z,17.29
2022-09-12T03:59:12.322Z,17.26
2022-09-12T04:01:39.178Z,17.21
2022-09-12T04:04:06.074Z,17.23
2022-09-12T04:06:32.976Z,17.21
2022-09-12T04:08:59.855Z,17.17
2022-09-12T04:11:26.735Z,17.17
2022-09-12T04:13:54.204Z,17.10
2022-09-12T04:16:21.325Z,17.12
2022-09-12T04:18:48.418Z,17.12
2022-09-12T04:21:19.603Z,17.11
2022-09-12T04:23:46.490Z,17.08
2022-09-12T04:26:15.036Z,17.06
2022-09-12T04:28:41.950Z,17.04
2022-09-12T04:31:15.523Z,17.03
2022-09-12T04:33:42.536Z,17.01
2022-09-12T04:36:16.639Z,17.00
2022-09-12T04:38:45.900Z,16.98
2022-09-12T04:41:18.447Z,16.99
2022-09-12T04:43:47.046Z,17.00
2022-09-12T04:46:17.031Z,17.03
2022-09-12T04:48:44.097Z,17.02
2022-09-12T04:51:21.149Z,17.08
2022-09-12T04:53:53.878Z,17.11
2022-09-12T04:56:22.150Z,17.16
2022-09-12T04:58:49.098Z,17.20
2022-09-12T05:01:22.327Z,17.20
2022-09-12T05:03:50.639Z,17.29
2022-09-12T05:06:23.950Z,17.31
2022-09-12T05:08:52.358Z,17.36
2022-09-12T05:11:36.763Z,17.39
2022-09-12T05:14:13.881Z,17.44
2022-09-12T05:16:41.289Z,17.44
2022-09-12T05:19:09.290Z,17.55
2022-09-12T05:21:36.212Z,17.58
2022-09-12T05:24:05.386Z,17.54
2022-09-12T05:26:32.448Z,17.42
2022-09-12T05:28:59.339Z,17.30
2022-09-12T05:31:27.995Z,17.18
2022-09-12T05:33:56.133Z,17.11
2022-09-12T05:36:29.274Z,17.11
2022-09-12T05:38:57.012Z,17.14
2022-09-12T05:41:27.160Z,17.21
2022-09-12T05:43:57.003Z,17.26
2022-09-12T05:46:28.818Z,17.34
2022-09-12T05:48:57.062Z,17.42
2022-09-12T05:51:27.397Z,17.49
2022-09-12T05:53:57.671Z,17.57
2022-09-12T05:56:28.428Z,17.66
2022-09-12T05:59:04.735Z,17.70
2022-09-12T06:01:34.774Z,17.79
2022-09-12T06:04:05.317Z,17.80
2022-09-12T06:06:36.469Z,17.87
2022-09-12T06:09:05.363Z,17.93
2022-09-12T06:11:37.154Z,17.95
2022-09-12T06:14:04.991Z,18.02
2022-09-12T06:16:34.351Z,18.11
2022-09-12T06:19:06.673Z,18.13
2022-09-12T06:21:35.315Z,18.17
2022-09-12T06:24:02.623Z,18.22
2022-09-12T06:26:29.884Z,18.24
2022-09-12T06:28:59.911Z,18.28
2022-09-12T06:31:33.503Z,18.30
2022-09-12T06:34:03.457Z,18.33
2022-09-12T06:36:36.140Z,18.34
2022-09-12T06:39:16.451Z,18.33
2022-09-12T06:41:44.656Z,18.35
2022-09-12T06:44:18.303Z,18.35
2022-09-12T06:46:45.645Z,18.37
2022-09-12T06:49:12.939Z,18.42
2022-09-12T06:51:41.770Z,18.45
2022-09-12T06:54:09.940Z,18.52
2022-09-12T06:56:37.714Z,18.57
2022-09-12T06:59:04.573Z,18.62
2022-09-12T07:01:32.349Z,18.65
2022-09-12T07:04:02.991Z,18.68
2022-09-12T07:06:36.585Z,18.72
2022-09-12T07:09:06.443Z,18.74
2022-09-12T07:11:36.625Z,18.78
2022-09-12T07:14:05.686Z,18.83
2022-09-12T07:16:33.059Z,18.87
2022-09-12T07:19:02.202Z,18.96
2022-09-12T07:21:30.117Z,19.05
2022-09-12T07:23:58.117Z,19.09
2022-09-12T07:26:28.037Z,19.25
2022-09-12T07:29:12.912Z,19.35
2022-09-12T07:31:44.733Z,19.46
2022-09-12T07:34:11.636Z,19.56
2022-09-12T07:36:39.127Z,19.67
2022-09-12T07:39:06.325Z,19.74
2022-09-12T07:41:36.355Z,19.85
2022-09-12T07:44:06.585Z,19.93
2022-09-12T07:46:33.572Z,20.02
2022-09-12T07:49:01.324Z,20.11
2022-09-12T07:51:30.288Z,20.19
2022-09-12T07:53:57.595Z,20.27
2022-09-12T07:56:29.616Z,20.37
2022-09-12T07:58:57.106Z,20.44
2022-09-12T08:01:24.665Z,20.50
2022-09-12T08:03:57.256Z,20.57
2022-09-12T08:06:25.934Z,20.65
2022-09-12T08:08:55.764Z,20.73
2022-09-12T08:11:24.189Z,20.79
2022-09-12T08:13:56.156Z,20.88
2022-09-12T08:16:30.990Z,20.97
2022-09-12T08:18:58.403Z,21.11
2022-09-12T08:21:28.746Z,21.19
2022-09-12T08:23:59.073Z,21.24
2022-09-12T08:26:26.058Z,21.30
2022-09-12T08:28:53.617Z,21.38
2022-09-12T08:31:23.936Z,21.48
2022-09-12T08:33:51.808Z,21.57
2022-09-12T08:36:25.867Z,21.62
2022-09-12T08:38:59.796Z,21.66
2022-09-12T08:41:44.264Z,21.67
2022-09-12T08:44:24.482Z,21.64
2022-09-12T08:47:31.590Z,21.64
2022-09-12T08:50:10.402Z,21.65
2022-09-12T08:52:48.174Z,21.69
2022-09-12T08:55:59.232Z,21.71
2022-09-12T08:58:28.931Z,21.79
2022-09-12T09:01:24.417Z,21.86
2022-09-12T09:04:18.369Z,21.93
2022-09-12T09:07:07.753Z,21.95
2022-09-12T09:10:14.564Z,22.02
2022-09-12T09:12:57.243Z,22.05
2022-09-12T09:16:01.541Z,22.09
2022-09-12T09:18:32.297Z,22.23
2022-09-12T09:21:51.075Z,22.33
2022-09-12T09:24:22.152Z,22.36
2022-09-12T09:26:57.614Z,22.43
2022-09-12T09:29:31.247Z,22.57
2022-09-12T09:32:01.253Z,22.69
2022-09-12T09:34:31.730Z,22.79
2022-09-12T09:37:20.777Z,22.86
2022-09-12T09:40:19.897Z,22.94
2022-09-12T09:43:04.541Z,23.03
2022-09-12T09:45:31.636Z,23.09
2022-09-12T09:48:24.550Z,23.16
2022-09-12T09:50:51.863Z,23.24
2022-09-12T09:53:35.328Z,23.34
2022-09-12T09:56:33.238Z,23.42
2022-09-12T09:59:31.485Z,23.47
2022-09-12T10:02:14.772Z,23.53
2022-09-12T10:04:55.208Z,23.56
2022-09-12T10:07:23.123Z,23.58
2022-09-12T10:10:16.010Z,23.56
2022-09-12T10:12:43.538Z,23.61
2022-09-12T10:15:26.503Z,23.65
2022-09-12T10:17:55.660Z,23.66
2022-09-12T10:20:46.042Z,23.68
2022-09-12T10:23:37.640Z,23.63
2022-09-12T10:26:11.622Z,23.64
2022-09-12T10:28:39.440Z,23.70
2022-09-12T10:31:08.834Z,23.74
2022-09-12T10:33:44.488Z,23.77
2022-09-12T10:36:12.098Z,23.83
2022-09-12T10:38:39.075Z,23.88
2022-09-12T10:41:09.549Z,23.91
2022-09-12T10:43:39.618Z,23.98
2022-09-12T10:46:18.376Z,24.04
2022-09-12T10:48:50.177Z,24.04
2022-09-12T10:51:26.030Z,24.03
2022-09-12T10:54:05.830Z,24.06
2022-09-12T10:57:01.989Z,24.11
2022-09-12T11:00:15.352Z,24.07
2022-09-12T11:03:23.807Z,24.06
2022-09-12T11:06:00.545Z,24.09
2022-09-12T11:09:15.962Z,24.13
2022-09-12T11:12:08.728Z,24.07
2022-09-12T11:15:12.200Z,24.01
2022-09-12T11:17:52.011Z,24.06
2022-09-12T11:20:44.996Z,24.14
2022-09-12T11:23:17.600Z,24.22
2022-09-12T11:25:57.193Z,24.34
2022-09-12T11:28:35.742Z,24.44
2022-09-12T11:31:59.027Z,24.49
2022-09-12T11:34:53.593Z,24.56
2022-09-12T11:38:03.829Z,24.61
2022-09-12T11:40:56.612Z,24.67
2022-09-12T11:43:50.256Z,24.74
2022-09-12T11:46:36.351Z,24.83
2022-09-12T11:49:21.229Z,24.90
2022-09-12T11:51:59.278Z,24.99
2022-09-12T11:54:35.537Z,25.07
2022-09-12T11:57:48.536Z,25.13
2022-09-12T12:00:51.015Z,25.19
2022-09-12T12:03:39.520Z,25.23
2022-09-12T12:06:19.176Z,25.30
2022-09-12T12:08:47.681Z,25.37
2022-09-12T12:11:40.445Z,25.41
2022-09-12T12:14:23.189Z,25.50
2022-09-12T12:16:50.528Z,25.57
2022-09-12T12:19:17.292Z,25.64
2022-09-12T12:21:47.765Z,25.69
2022-09-12T12:24:26.705Z,25.73
2022-09-12T12:26:53.437Z,25.82
2022-09-12T12:29:20.173Z,25.86
2022-09-12T12:31:59.192Z,25.89
2022-09-12T12:34:37.264Z,25.90
2022-09-12T12:37:19.359Z,25.92
2022-09-12T12:39:47.987Z,25.96
2022-09-12T12:42:33.304Z,25.98
2022-09-12T12:45:09.010Z,26.00
2022-09-12T12:47:38.566Z,26.04
2022-09-12T12:50:11.122Z,26.05
2022-09-12T12:53:06.531Z,26.06
2022-09-12T12:55:47.603Z,26.09
2022-09-12T12:58:45.809Z,26.12
2022-09-12T13:01:19.575Z,26.13
2022-09-12T13:03:54.829Z,26.16
2022-09-12T13:07:03.506Z,26.19
2022-09-12T13:09:49.481Z,26.16
2022-09-12T13:12:24.895Z,26.16
2022-09-12T13:15:00.234Z,26.16
2022-09-12T13:17:43.543Z,26.11
2022-09-12T13:20:29.386Z,26.15
2022-09-12T13:22:57.503Z,26.19
2022-09-12T13:25:35.098Z,26.22
2022-09-12T13:28:10.691Z,26.25
2022-09-12T13:30:42.695Z,26.29
2022-09-12T13:33:24.337Z,26.31
2022-09-12T13:36:23.524Z,26.37
2022-09-12T13:39:15.911Z,26.40
2022-09-12T13:42:39.886Z,26.42
2022-09-12T13:45:13.589Z,26.47
2022-09-12T13:47:44.281Z,26.51
2022-09-12T13:50:28.395Z,26.55
2022-09-12T13:52:59.375Z,26.60
2022-09-12T13:55:33.027Z,26.65
2022-09-12T13:58:03.822Z,26.67
2022-09-12T14:00:33.218Z,26.71
2022-09-12T14:03:19.397Z,26.71
2022-09-12T14:05:55.773Z,26.74
2022-09-12T14:08:23.904Z,26.75
2022-09-12T14:10:51.285Z,26.78
2022-09-12T14:13:26.296Z,26.78
2022-09-12T14:15:56.074Z,26.82
2022-09-12T14:18:29.613Z,26.82
2022-09-12T14:21:02.036Z,26.80
2022-09-12T14:23:33.181Z,26.77
2022-09-12T14:26:06.537Z,26.72
2022-09-12T14:28:34.329Z,26.77
2022-09-12T14:31:06.902Z,26.76
2022-09-12T14:33:49.681Z,26.75
2022-09-12T14:36:34.003Z,26.73
2022-09-12T14:39:05.418Z,26.69
2022-09-12T14:41:38.997Z,26.67
2022-09-12T14:44:17.782Z,26.66
2022-09-12T14:46:44.937Z,26.65
2022-09-12T14:49:28.855Z,26.59
2022-09-12T14:52:02.451Z,26.57
2022-09-12T14:54:32.948Z,26.56
2022-09-12T14:57:07.588Z,26.54
2022-09-12T14:59:39.868Z,26.49
2022-09-12T15:02:24.608Z,26.51
2022-09-12T15:05:06.660Z,26.50
2022-09-12T15:07:39.675Z,26.50
2022-09-12T15:10:35.149Z,26.46
2022-09-12T15:13:11.934Z,26.46
2022-09-12T15:15:44.776Z,26.44
2022-09-12T15:18:12.250Z,26.42
2022-09-12T15:20:41.274Z,26.42
2022-09-12T15:23:16.116Z,26.43
2022-09-12T15:25:42.989Z,26.43
2022-09-12T15:28:18.453Z,26.43
2022-09-12T15:30:47.739Z,26.40
2022-09-12T15:33:14.776Z,26.40
2022-09-12T15:35:41.731Z,26.37
2022-09-12T15:38:08.631Z,26.27
2022-09-12T15:40:35.586Z,26.32
2022-09-12T15:43:03.113Z,26.31
2022-09-12T15:45:33.416Z,26.27
2022-09-12T15:48:02.796Z,26.23
2022-09-12T15:50:30.210Z,26.19
2022-09-12T15:52:57.633Z,26.15
2022-09-12T15:55:33.602Z,26.13
2022-09-12T15:58:04.865Z,26.13
2022-09-12T16:00:33.325Z,26.12
2022-09-12T16:03:01.012Z,26.11
2022-09-12T16:05:27.992Z,26.09
2022-09-12T16:07:55.566Z,26.06
2022-09-12T16:10:30.352Z,26.03
2022-09-12T16:12:57.851Z,25.96
2022-09-12T16:15:26.044Z,25.99
2022-09-12T16:17:53.649Z,25.94
2022-09-12T16:20:22.148Z,25.89
2022-09-12T16:22:49.325Z,25.83
2022-09-12T16:25:17.236Z,25.85
2022-09-12T16:27:44.793Z,25.81
2022-09-12T16:30:13.094Z,25.75
2022-09-12T16:32:40.063Z,25.76
2022-09-12T16:35:07.711Z,25.73
2022-09-12T16:37:34.645Z,25.65
2022-09-12T16:40:04.157Z,25.64
2022-09-12T16:42:31.626Z,25.60
2022-09-12T16:44:58.487Z,25.57
2022-09-12T16:47:25.347Z,25.53
2022-09-12T16:49:52.313Z,25.48
2022-09-12T16:52:19.419Z,25.46
2022-09-12T16:54:46.346Z,25.44
2022-09-12T16:57:13.427Z,25.39
2022-09-12T16:59:40.382Z,25.37
2022-09-12T17:02:08.294Z,25.31
2022-09-12T17:04:35.221Z,25.32
2022-09-12T17:07:02.156Z,25.27
2022-09-12T17:09:29.423Z,25.25
2022-09-12T17:11:57.197Z,25.21
2022-09-12T17:14:24.763Z,25.19
2022-09-12T17:16:52.292Z,25.11
2022-09-12T17:19:26.716Z,25.06
2022-09-12T17:21:54.298Z,25.04
2022-09-12T17:24:21.822Z,24.98
2022-09-12T17:26:49.334Z,24.93
2022-09-12T17:29:16.988Z,24.87
2022-09-12T17:31:45.063Z,24.82
2022-09-12T17:34:16.229Z,24.75
2022-09-12T17:36:44.718Z,24.70
2022-09-12T17:39:13.576Z,24.65
2022-09-12T17:41:42.599Z,24.60
2022-09-12T17:44:12.800Z,24.53
2022-09-12T17:46:40.300Z,24.47
2022-09-12T17:49:12.143Z,24.40
2022-09-12T17:51:40.578Z,24.35
2022-09-12T17:54:12.812Z,24.27
2022-09-12T17:56:40.307Z,24.23
2022-09-12T17:59:10.066Z,24.17
2022-09-12T18:01:55.210Z,24.10
2022-09-12T18:04:22.156Z,24.00
2022-09-12T18:06:49.775Z,23.92
2022-09-12T18:09:23.290Z,23.83
2022-09-12T18:11:51.505Z,23.79
2022-09-12T18:14:18.732Z,23.71
2022-09-12T18:16:46.749Z,23.61
2022-09-12T18:19:14.176Z,23.58
2022-09-12T18:21:41.224Z,23.52
2022-09-12T18:24:09.758Z,23.45
2022-09-12T18:26:37.108Z,23.36
2022-09-12T18:29:03.988Z,23.29
2022-09-12T18:31:31.368Z,23.24
2022-09-12T18:34:02.669Z,23.19
2022-09-12T18:36:30.813Z,23.12
2022-09-12T18:38:59.489Z,23.05
2022-09-12T18:41:28.802Z,23.02
2022-09-12T18:43:58.106Z,22.94
2022-09-12T18:46:26.097Z,22.85
2022-09-12T18:48:55.464Z,22.78
2022-09-12T18:51:25.794Z,22.71
2022-09-12T18:53:56.271Z,22.63
2022-09-12T18:56:32.781Z,22.57
2022-09-12T18:59:02.015Z,22.52
2022-09-12T19:01:37.489Z,22.44
2022-09-12T19:04:06.468Z,22.37
2022-09-12T19:06:37.284Z,22.31
2022-09-12T19:09:08.089Z,22.28
2022-09-12T19:11:40.759Z,22.23
2022-09-12T19:14:08.465Z,22.17
2022-09-12T19:16:35.725Z,22.10
2022-09-12T19:19:03.060Z,22.06
2022-09-12T19:21:31.828Z,22.00
2022-09-12T19:24:05.986Z,21.95
2022-09-12T19:26:33.692Z,21.90
2022-09-12T19:29:02.804Z,21.84
2022-09-12T19:31:30.399Z,21.78
2022-09-12T19:34:07.831Z,21.75
2022-09-12T19:36:50.674Z,21.70
2022-09-12T19:39:19.764Z,21.64
2022-09-12T19:41:47.441Z,21.60
2022-09-12T19:44:14.711Z,21.55
2022-09-12T19:46:41.926Z,21.49
2022-09-12T19:49:11.693Z,21.46
2022-09-12T19:51:38.787Z,21.40
2022-09-12T19:54:06.155Z,21.33
2022-09-12T19:56:33.015Z,21.29
2022-09-12T19:59:00.143Z,21.23
2022-09-12T20:01:28.510Z,21.13
2022-09-12T20:03:58.843Z,21.11
2022-09-12T20:06:26.740Z,21.06
2022-09-12T20:08:54.499Z,21.02
2022-09-12T20:11:23.609Z,20.97
2022-09-12T20:13:50.799Z,20.87
2022-09-12T20:16:22.924Z,20.86
2022-09-12T20:18:55.832Z,20.82
2022-09-12T20:21:25.783Z,20.78
2022-09-12T20:23:52.974Z,20.73
2022-09-12T20:26:20.474Z,20.67
2022-09-12T20:28:47.518Z,20.63
2022-09-12T20:31:16.755Z,20.58
2022-09-12T20:33:47.564Z,20.55
2022-09-12T20:36:19.835Z,20.49
2022-09-12T20:38:52.620Z,20.43
2022-09-12T20:41:21.271Z,20.37
2022-09-12T20:43:56.804Z,20.32
2022-09-12T20:46:26.328Z,20.26
2022-09-12T20:48:53.716Z,20.21
2022-09-12T20:51:22.108Z,20.17
2022-09-12T20:53:54.387Z,20.12
2022-09-12T20:56:22.747Z,20.08
2022-09-12T20:58:50.305Z,20.05
2022-09-12T21:01:17.375Z,20.02
2022-09-12T21:03:44.785Z,20.00
2022-09-12T21:06:13.501Z,19.98
2022-09-12T21:08:40.736Z,19.95
2022-09-12T21:11:07.819Z,19.91
2022-09-12T21:13:35.313Z,19.90
2022-09-12T21:16:08.361Z,19.84
2022-09-12T21:18:36.260Z,19.80
2022-09-12T21:21:04.332Z,19.78
2022-09-12T21:23:31.627Z,19.75
2022-09-12T21:26:02.269Z,19.72
2022-09-12T21:28:29.584Z,19.68
2022-09-12T21:30:56.546Z,19.65
2022-09-12T21:33:23.870Z,19.61
2022-09-12T21:35:51.198Z,19.57
2022-09-12T21:38:19.265Z,19.54
2022-09-12T21:40:47.056Z,19.53
2022-09-12T21:43:14.553Z,19.51
2022-09-12T21:45:41.418Z,19.48
2022-09-12T21:48:08.286Z,19.45
2022-09-12T21:50:35.527Z,19.43
2022-09-12T21:53:02.408Z,19.40
2022-09-12T21:55:29.355Z,19.40
2022-09-12T21:57:56.548Z,19.37
2022-09-12T22:00:24.130Z,19.34
2022-09-12T22:02:51.002Z,19.37
2022-09-12T22:05:20.329Z,19.36
2022-09-12T22:07:47.195Z,19.33
2022-09-12T22:10:14.074Z,19.30
2022-09-12T22:12:45.965Z,19.27
2022-09-12T22:15:38.970Z,19.26
2022-09-12T22:18:01.196Z,19.23
2022-09-12T22:20:28.183Z,19.21
2022-09-12T22:23:13.858Z,19.19
2022-09-12T22:25:40.896Z,19.16
2022-09-12T22:28:07.791Z,19.15
2022-09-12T22:30:35.352Z,19.12
2022-09-12T22:33:02.215Z,19.14
2022-09-12T22:35:29.099Z,19.13
2022-09-12T22:37:55.974Z,19.12
2022-09-12T22:40:22.901Z,19.10
2022-09-12T22:42:52.874Z,19.10
2022-09-12T22:45:20.038Z,19.12
2022-09-12T22:47:47.112Z,19.13
2022-09-12T22:50:14.197Z,19.14
2022-09-12T22:52:41.580Z,19.16
2022-09-12T22:55:09.096Z,19.17
2022-09-12T22:57:36.003Z,19.18
2022-09-12T23:00:07.881Z,19.18
2022-09-12T23:02:34.923Z,19.19
2022-09-12T23:05:02.592Z,19.20
2022-09-12T23:07:30.413Z,19.19
2022-09-12T23:09:57.282Z,19.21
2022-09-12T23:12:24.160Z,19.23
2022-09-12T23:14:51.038Z,19.24
2022-09-12T23:17:17.928Z,19.24
2022-09-12T23:19:45.470Z,19.25
2022-09-12T23:22:12.351Z,19.27
2022-09-12T23:24:39.211Z,19.29
2022-09-12T23:27:06.201Z,19.31
2022-09-12T23:29:35.220Z,19.32
2022-09-12T23:32:04.129Z,19.34
2022-09-12T23:34:31.048Z,19.31
2022-09-12T23:36:57.924Z,19.40
2022-09-12T23:39:24.806Z,19.43
2022-09-12T23:41:52.043Z,19.47
2022-09-12T23:44:18.916Z,19.50
2022-09-12T23:46:45.791Z,19.53
2022-09-12T23:49:12.685Z,19.53
2022-09-12T23:51:39.651Z,19.57
2022-09-12T23:54:06.598Z,19.60
2022-09-12T23:56:33.485Z,19.62
2022-09-12T23:59:00.343Z,19.65
